sensor_id;sensor_type;location;lat;lon;timestamp;P1;durP1;ratioP1;P2;durP2;ratioP2
71368;SDS011;59175;53.214;5.728;2023-03-01T00:00:07;2.53;;;0.53;;
71368;SDS011;59175;53.214;5.728;2023-03-01T00:02:33;1.73;;;0.33;;
71368;SDS011;59175;53.214;5.728;2023-03-01T00:04:58;5.30;;;0.50;;
71368;SDS011;59175;53.214;5.728;2023-03-01T00:07:23;0.93;;;0.40;;
71368;SDS011;59175;53.214;5.728;2023-03-01T00:09:49;0.97;;;0.30;;
71368;SDS011;59175;53.214;5.728;2023-03-01T00:12:14;2.17;;;0.70;;
71368;SDS011;59175;53.214;5.728;2023-03-01T00:14:39;2.17;;;0.77;;
71368;SDS011;59175;53.214;5.728;2023-03-01T00:17:05;2.00;;;0.95;;
71368;SDS011;59175;53.214;5.728;2023-03-01T00:19:30;2.33;;;0.90;;
71368;SDS011;59175;53.214;5.728;2023-03-01T00:21:57;3.40;;;0.95;;
71368;SDS011;59175;53.214;5.728;2023-03-01T00:24:22;3.73;;;1.07;;
71368;SDS011;59175;53.214;5.728;2023-03-01T00:26:47;4.83;;;1.97;;
71368;SDS011;59175;53.214;5.728;2023-03-01T00:29:13;3.37;;;1.33;;
71368;SDS011;59175;53.214;5.728;2023-03-01T00:31:38;2.33;;;0.63;;
71368;SDS011;59175;53.214;5.728;2023-03-01T00:34:03;2.70;;;0.83;;
71368;SDS011;59175;53.214;5.728;2023-03-01T00:36:31;2.20;;;0.55;;
71368;SDS011;59175;53.214;5.728;2023-03-01T00:38:56;3.67;;;1.07;;
71368;SDS011;59175;53.214;5.728;2023-03-01T00:41:22;0.40;;;0.27;;
71368;SDS011;59175;53.214;5.728;2023-03-01T00:43:47;1.70;;;0.60;;
71368;SDS011;59175;53.214;5.728;2023-03-01T00:46:14;2.70;;;0.43;;
71368;SDS011;59175;53.214;5.728;2023-03-01T00:48:39;2.22;;;1.20;;
71368;SDS011;59175;53.214;5.728;2023-03-01T00:53:30;1.73;;;0.47;;
71368;SDS011;59175;53.214;5.728;2023-03-01T00:55:56;2.13;;;0.70;;
71368;SDS011;59175;53.214;5.728;2023-03-01T00:58:21;1.98;;;0.35;;
71368;SDS011;59175;53.214;5.728;2023-03-01T01:00:47;3.27;;;1.73;;
71368;SDS011;59175;53.214;5.728;2023-03-01T01:03:12;2.93;;;0.30;;
71368;SDS011;59175;53.214;5.728;2023-03-01T01:05:37;2.03;;;1.00;;
71368;SDS011;59175;53.214;5.728;2023-03-01T01:08:02;5.27;;;1.23;;
71368;SDS011;59175;53.214;5.728;2023-03-01T01:10:27;1.57;;;0.67;;
71368;SDS011;59175;53.214;5.728;2023-03-01T01:12:53;1.43;;;0.43;;
71368;SDS011;59175;53.214;5.728;2023-03-01T01:15:18;2.90;;;1.37;;
71368;SDS011;59175;53.214;5.728;2023-03-01T01:17:43;3.90;;;0.83;;
71368;SDS011;59175;53.214;5.728;2023-03-01T01:20:08;1.37;;;0.60;;
71368;SDS011;59175;53.214;5.728;2023-03-01T01:22:34;4.43;;;0.77;;
71368;SDS011;59175;53.214;5.728;2023-03-01T01:24:59;0.57;;;0.20;;
71368;SDS011;59175;53.214;5.728;2023-03-01T01:27:24;2.17;;;1.17;;
71368;SDS011;59175;53.214;5.728;2023-03-01T01:29:49;3.50;;;1.03;;
71368;SDS011;59175;53.214;5.728;2023-03-01T01:32:14;4.67;;;1.87;;
71368;SDS011;59175;53.214;5.728;2023-03-01T01:34:40;3.47;;;1.50;;
71368;SDS011;59175;53.214;5.728;2023-03-01T01:37:05;2.70;;;0.83;;
71368;SDS011;59175;53.214;5.728;2023-03-01T01:39:32;5.10;;;1.98;;
71368;SDS011;59175;53.214;5.728;2023-03-01T01:41:58;8.20;;;2.13;;
71368;SDS011;59175;53.214;5.728;2023-03-01T01:44:24;3.73;;;0.93;;
71368;SDS011;59175;53.214;5.728;2023-03-01T01:46:57;3.47;;;1.38;;
71368;SDS011;59175;53.214;5.728;2023-03-01T01:49:41;2.00;;;0.77;;
71368;SDS011;59175;53.214;5.728;2023-03-01T01:52:18;1.37;;;0.67;;
71368;SDS011;59175;53.214;5.728;2023-03-01T01:57:14;4.60;;;1.60;;
71368;SDS011;59175;53.214;5.728;2023-03-01T01:59:41;4.13;;;1.45;;
71368;SDS011;59175;53.214;5.728;2023-03-01T02:02:08;5.85;;;2.45;;
71368;SDS011;59175;53.214;5.728;2023-03-01T02:04:33;6.80;;;2.13;;
71368;SDS011;59175;53.214;5.728;2023-03-01T02:07:02;8.13;;;3.00;;
71368;SDS011;59175;53.214;5.728;2023-03-01T02:09:28;11.75;;;2.15;;
71368;SDS011;59175;53.214;5.728;2023-03-01T02:11:55;5.65;;;3.13;;
71368;SDS011;59175;53.214;5.728;2023-03-01T02:14:20;6.17;;;2.43;;
71368;SDS011;59175;53.214;5.728;2023-03-01T02:16:46;3.87;;;1.37;;
71368;SDS011;59175;53.214;5.728;2023-03-01T02:19:13;18.93;;;3.03;;
71368;SDS011;59175;53.214;5.728;2023-03-01T02:21:54;3.20;;;1.35;;
71368;SDS011;59175;53.214;5.728;2023-03-01T02:24:25;6.30;;;1.63;;
71368;SDS011;59175;53.214;5.728;2023-03-01T02:26:54;3.90;;;1.00;;
71368;SDS011;59175;53.214;5.728;2023-03-01T02:29:20;6.65;;;1.98;;
71368;SDS011;59175;53.214;5.728;2023-03-01T02:31:46;10.13;;;3.70;;
71368;SDS011;59175;53.214;5.728;2023-03-01T02:34:21;8.27;;;0.87;;
71368;SDS011;59175;53.214;5.728;2023-03-01T02:36:48;2.88;;;1.13;;
71368;SDS011;59175;53.214;5.728;2023-03-01T02:39:16;1.97;;;0.30;;
71368;SDS011;59175;53.214;5.728;2023-03-01T02:41:44;9.18;;;2.25;;
71368;SDS011;59175;53.214;5.728;2023-03-01T02:44:11;17.83;;;6.03;;
71368;SDS011;59175;53.214;5.728;2023-03-01T02:46:41;1.80;;;0.60;;
71368;SDS011;59175;53.214;5.728;2023-03-01T02:49:21;5.47;;;0.57;;
71368;SDS011;59175;53.214;5.728;2023-03-01T02:56:36;6.73;;;2.33;;
71368;SDS011;59175;53.214;5.728;2023-03-01T02:59:02;3.17;;;1.53;;
71368;SDS011;59175;53.214;5.728;2023-03-01T03:01:27;2.35;;;1.23;;
71368;SDS011;59175;53.214;5.728;2023-03-01T03:04:02;4.40;;;1.90;;
71368;SDS011;59175;53.214;5.728;2023-03-01T03:06:27;0.80;;;0.40;;
71368;SDS011;59175;53.214;5.728;2023-03-01T03:08:53;4.17;;;1.50;;
71368;SDS011;59175;53.214;5.728;2023-03-01T03:11:18;2.07;;;0.73;;
71368;SDS011;59175;53.214;5.728;2023-03-01T03:13:43;1.63;;;0.80;;
71368;SDS011;59175;53.214;5.728;2023-03-01T03:16:13;0.90;;;0.55;;
71368;SDS011;59175;53.214;5.728;2023-03-01T03:18:38;2.47;;;0.97;;
71368;SDS011;59175;53.214;5.728;2023-03-01T03:21:03;1.03;;;0.23;;
71368;SDS011;59175;53.214;5.728;2023-03-01T03:23:32;0.93;;;0.25;;
71368;SDS011;59175;53.214;5.728;2023-03-01T03:25:57;1.60;;;0.60;;
71368;SDS011;59175;53.214;5.728;2023-03-01T03:28:22;0.60;;;0.30;;
71368;SDS011;59175;53.214;5.728;2023-03-01T03:30:47;4.23;;;1.40;;
71368;SDS011;59175;53.214;5.728;2023-03-01T03:33:13;1.97;;;0.60;;
71368;SDS011;59175;53.214;5.728;2023-03-01T03:35:43;4.07;;;0.70;;
71368;SDS011;59175;53.214;5.728;2023-03-01T03:38:09;3.15;;;1.17;;
71368;SDS011;59175;53.214;5.728;2023-03-01T03:40:41;2.60;;;0.77;;
71368;SDS011;59175;53.214;5.728;2023-03-01T03:43:07;2.67;;;0.70;;
71368;SDS011;59175;53.214;5.728;2023-03-01T03:45:32;2.88;;;0.68;;
71368;SDS011;59175;53.214;5.728;2023-03-01T03:47:58;11.97;;;0.53;;
71368;SDS011;59175;53.214;5.728;2023-03-01T03:50:23;1.47;;;0.63;;
71368;SDS011;59175;53.214;5.728;2023-03-01T03:52:48;3.63;;;0.90;;
71368;SDS011;59175;53.214;5.728;2023-03-01T03:55:14;1.10;;;0.47;;
71368;SDS011;59175;53.214;5.728;2023-03-01T03:57:39;1.87;;;0.77;;
71368;SDS011;59175;53.214;5.728;2023-03-01T04:00:05;1.23;;;0.43;;
71368;SDS011;59175;53.214;5.728;2023-03-01T04:02:37;1.67;;;0.50;;
71368;SDS011;59175;53.214;5.728;2023-03-01T04:05:03;2.40;;;0.55;;
71368;SDS011;59175;53.214;5.728;2023-03-01T04:07:28;1.60;;;0.37;;
71368;SDS011;59175;53.214;5.728;2023-03-01T04:09:53;4.00;;;0.93;;
71368;SDS011;59175;53.214;5.728;2023-03-01T04:12:18;6.03;;;1.30;;
71368;SDS011;59175;53.214;5.728;2023-03-01T04:14:47;0.60;;;0.20;;
71368;SDS011;59175;53.214;5.728;2023-03-01T04:17:13;3.30;;;1.03;;
71368;SDS011;59175;53.214;5.728;2023-03-01T04:19:38;5.27;;;1.73;;
71368;SDS011;59175;53.214;5.728;2023-03-01T04:22:03;1.83;;;0.70;;
71368;SDS011;59175;53.214;5.728;2023-03-01T04:24:34;2.67;;;1.35;;
71368;SDS011;59175;53.214;5.728;2023-03-01T04:26:59;1.80;;;0.70;;
71368;SDS011;59175;53.214;5.728;2023-03-01T04:29:24;3.93;;;1.33;;
71368;SDS011;59175;53.214;5.728;2023-03-01T04:31:49;1.00;;;0.47;;
71368;SDS011;59175;53.214;5.728;2023-03-01T04:34:15;5.77;;;1.40;;
71368;SDS011;59175;53.214;5.728;2023-03-01T04:36:40;3.63;;;1.57;;
71368;SDS011;59175;53.214;5.728;2023-03-01T04:39:05;2.10;;;1.13;;
71368;SDS011;59175;53.214;5.728;2023-03-01T04:41:37;0.22;;;0.13;;
71368;SDS011;59175;53.214;5.728;2023-03-01T04:44:03;0.00;;;0.00;;
71368;SDS011;59175;53.214;5.728;2023-03-01T04:46:29;1.90;;;0.45;;
71368;SDS011;59175;53.214;5.728;2023-03-01T04:48:54;1.00;;;0.40;;
71368;SDS011;59175;53.214;5.728;2023-03-01T04:51:19;3.97;;;1.13;;
71368;SDS011;59175;53.214;5.728;2023-03-01T04:53:45;1.13;;;0.30;;
71368;SDS011;59175;53.214;5.728;2023-03-01T04:56:10;5.30;;;0.60;;
71368;SDS011;59175;53.214;5.728;2023-03-01T04:58:35;0.97;;;0.47;;
71368;SDS011;59175;53.214;5.728;2023-03-01T05:01:01;2.13;;;0.97;;
71368;SDS011;59175;53.214;5.728;2023-03-01T05:03:26;0.87;;;0.37;;
71368;SDS011;59175;53.214;5.728;2023-03-01T05:05:53;2.90;;;0.93;;
71368;SDS011;59175;53.214;5.728;2023-03-01T05:08:18;4.17;;;1.20;;
71368;SDS011;59175;53.214;5.728;2023-03-01T05:10:52;3.20;;;1.40;;
71368;SDS011;59175;53.214;5.728;2023-03-01T05:13:19;4.10;;;0.77;;
71368;SDS011;59175;53.214;5.728;2023-03-01T05:15:55;4.93;;;0.75;;
71368;SDS011;59175;53.214;5.728;2023-03-01T05:18:21;4.83;;;1.97;;
71368;SDS011;59175;53.214;5.728;2023-03-01T05:20:50;1.52;;;0.57;;
71368;SDS011;59175;53.214;5.728;2023-03-01T05:23:17;1.58;;;0.57;;
71368;SDS011;59175;53.214;5.728;2023-03-01T05:25:43;5.88;;;1.38;;
71368;SDS011;59175;53.214;5.728;2023-03-01T05:28:10;3.73;;;0.93;;
71368;SDS011;59175;53.214;5.728;2023-03-01T05:30:36;0.85;;;0.28;;
71368;SDS011;59175;53.214;5.728;2023-03-01T05:33:01;2.10;;;0.97;;
71368;SDS011;59175;53.214;5.728;2023-03-01T05:35:26;2.67;;;0.67;;
71368;SDS011;59175;53.214;5.728;2023-03-01T05:37:52;0.67;;;0.23;;
71368;SDS011;59175;53.214;5.728;2023-03-01T05:40:18;0.00;;;0.00;;
71368;SDS011;59175;53.214;5.728;2023-03-01T05:42:44;0.85;;;0.20;;
71368;SDS011;59175;53.214;5.728;2023-03-01T05:45:10;0.43;;;0.22;;
71368;SDS011;59175;53.214;5.728;2023-03-01T05:47:37;0.33;;;0.10;;
71368;SDS011;59175;53.214;5.728;2023-03-01T05:50:02;1.50;;;0.50;;
71368;SDS011;59175;53.214;5.728;2023-03-01T05:52:27;1.07;;;0.47;;
71368;SDS011;59175;53.214;5.728;2023-03-01T05:54:52;1.33;;;0.57;;
71368;SDS011;59175;53.214;5.728;2023-03-01T05:57:18;0.47;;;0.07;;
71368;SDS011;59175;53.214;5.728;2023-03-01T05:59:43;0.83;;;0.20;;
71368;SDS011;59175;53.214;5.728;2023-03-01T06:02:08;1.77;;;0.53;;
71368;SDS011;59175;53.214;5.728;2023-03-01T06:04:33;1.73;;;0.77;;
71368;SDS011;59175;53.214;5.728;2023-03-01T06:06:59;1.00;;;0.20;;
71368;SDS011;59175;53.214;5.728;2023-03-01T06:09:24;2.00;;;0.47;;
71368;SDS011;59175;53.214;5.728;2023-03-01T06:11:50;1.38;;;0.30;;
71368;SDS011;59175;53.214;5.728;2023-03-01T06:14:16;2.70;;;0.70;;
71368;SDS011;59175;53.214;5.728;2023-03-01T06:16:41;0.60;;;0.30;;
71368;SDS011;59175;53.214;5.728;2023-03-01T06:19:06;0.73;;;0.13;;
71368;SDS011;59175;53.214;5.728;2023-03-01T06:21:31;5.40;;;1.03;;
71368;SDS011;59175;53.214;5.728;2023-03-01T06:23:57;1.67;;;0.80;;
71368;SDS011;59175;53.214;5.728;2023-03-01T06:26:22;1.67;;;0.30;;
71368;SDS011;59175;53.214;5.728;2023-03-01T06:28:47;1.93;;;0.47;;
71368;SDS011;59175;53.214;5.728;2023-03-01T06:31:12;1.50;;;0.30;;
71368;SDS011;59175;53.214;5.728;2023-03-01T06:33:38;1.33;;;0.60;;
71368;SDS011;59175;53.214;5.728;2023-03-01T06:36:03;1.10;;;0.27;;
71368;SDS011;59175;53.214;5.728;2023-03-01T06:38:28;2.63;;;0.63;;
71368;SDS011;59175;53.214;5.728;2023-03-01T06:40:54;2.57;;;0.30;;
71368;SDS011;59175;53.214;5.728;2023-03-01T06:43:21;0.93;;;0.73;;
71368;SDS011;59175;53.214;5.728;2023-03-01T06:45:46;1.67;;;0.50;;
71368;SDS011;59175;53.214;5.728;2023-03-01T06:48:11;2.83;;;1.13;;
71368;SDS011;59175;53.214;5.728;2023-03-01T06:50:37;2.10;;;0.87;;
71368;SDS011;59175;53.214;5.728;2023-03-01T06:53:02;0.90;;;0.20;;
71368;SDS011;59175;53.214;5.728;2023-03-01T06:55:28;3.60;;;0.60;;
71368;SDS011;59175;53.214;5.728;2023-03-01T06:57:54;2.33;;;0.70;;
71368;SDS011;59175;53.214;5.728;2023-03-01T07:00:20;5.80;;;1.10;;
71368;SDS011;59175;53.214;5.728;2023-03-01T07:02:45;1.87;;;0.63;;
71368;SDS011;59175;53.214;5.728;2023-03-01T07:05:10;1.67;;;0.53;;
71368;SDS011;59175;53.214;5.728;2023-03-01T07:07:35;2.37;;;0.93;;
71368;SDS011;59175;53.214;5.728;2023-03-01T07:10:00;2.13;;;0.77;;
71368;SDS011;59175;53.214;5.728;2023-03-01T07:12:26;0.80;;;0.37;;
71368;SDS011;59175;53.214;5.728;2023-03-01T07:14:51;2.10;;;1.20;;
71368;SDS011;59175;53.214;5.728;2023-03-01T07:17:16;0.97;;;0.47;;
71368;SDS011;59175;53.214;5.728;2023-03-01T07:19:42;0.70;;;0.23;;
71368;SDS011;59175;53.214;5.728;2023-03-01T07:22:07;1.10;;;0.70;;
71368;SDS011;59175;53.214;5.728;2023-03-01T07:24:35;4.93;;;1.83;;
71368;SDS011;59175;53.214;5.728;2023-03-01T07:27:00;2.17;;;0.70;;
71368;SDS011;59175;53.214;5.728;2023-03-01T07:29:25;1.67;;;0.97;;
71368;SDS011;59175;53.214;5.728;2023-03-01T07:31:50;4.17;;;1.47;;
71368;SDS011;59175;53.214;5.728;2023-03-01T07:34:16;1.43;;;0.43;;
71368;SDS011;59175;53.214;5.728;2023-03-01T07:36:41;1.97;;;0.77;;
71368;SDS011;59175;53.214;5.728;2023-03-01T07:39:08;7.03;;;0.77;;
71368;SDS011;59175;53.214;5.728;2023-03-01T07:41:33;2.58;;;0.65;;
71368;SDS011;59175;53.214;5.728;2023-03-01T07:43:59;2.80;;;1.63;;
71368;SDS011;59175;53.214;5.728;2023-03-01T07:46:24;3.53;;;0.70;;
71368;SDS011;59175;53.214;5.728;2023-03-01T07:48:49;2.23;;;1.10;;
71368;SDS011;59175;53.214;5.728;2023-03-01T07:51:14;2.10;;;0.73;;
71368;SDS011;59175;53.214;5.728;2023-03-01T07:53:39;1.40;;;0.57;;
71368;SDS011;59175;53.214;5.728;2023-03-01T07:58:30;2.13;;;1.17;;
71368;SDS011;59175;53.214;5.728;2023-03-01T08:00:55;4.30;;;0.87;;
71368;SDS011;59175;53.214;5.728;2023-03-01T08:03:20;2.00;;;0.77;;
71368;SDS011;59175;53.214;5.728;2023-03-01T08:05:46;1.50;;;0.80;;
71368;SDS011;59175;53.214;5.728;2023-03-01T08:08:11;5.60;;;0.87;;
71368;SDS011;59175;53.214;5.728;2023-03-01T08:10:36;3.20;;;1.10;;
71368;SDS011;59175;53.214;5.728;2023-03-01T08:13:01;6.03;;;1.23;;
71368;SDS011;59175;53.214;5.728;2023-03-01T08:15:27;5.27;;;1.07;;
71368;SDS011;59175;53.214;5.728;2023-03-01T08:17:52;2.23;;;0.40;;
71368;SDS011;59175;53.214;5.728;2023-03-01T08:20:17;2.47;;;1.00;;
71368;SDS011;59175;53.214;5.728;2023-03-01T08:22:42;1.93;;;0.67;;
71368;SDS011;59175;53.214;5.728;2023-03-01T08:25:08;3.90;;;1.53;;
71368;SDS011;59175;53.214;5.728;2023-03-01T08:27:33;3.27;;;1.03;;
71368;SDS011;59175;53.214;5.728;2023-03-01T08:29:58;3.20;;;1.63;;
71368;SDS011;59175;53.214;5.728;2023-03-01T08:32:23;2.43;;;0.47;;
71368;SDS011;59175;53.214;5.728;2023-03-01T08:34:49;3.97;;;1.53;;
71368;SDS011;59175;53.214;5.728;2023-03-01T08:37:14;6.67;;;3.03;;
71368;SDS011;59175;53.214;5.728;2023-03-01T08:39:39;4.57;;;1.93;;
71368;SDS011;59175;53.214;5.728;2023-03-01T08:42:04;3.70;;;1.53;;
71368;SDS011;59175;53.214;5.728;2023-03-01T08:44:29;4.47;;;1.30;;
71368;SDS011;59175;53.214;5.728;2023-03-01T08:46:55;5.90;;;1.57;;
71368;SDS011;59175;53.214;5.728;2023-03-01T08:49:21;2.53;;;1.20;;
71368;SDS011;59175;53.214;5.728;2023-03-01T08:51:46;4.82;;;1.05;;
71368;SDS011;59175;53.214;5.728;2023-03-01T08:54:13;3.93;;;1.63;;
71368;SDS011;59175;53.214;5.728;2023-03-01T08:56:39;4.50;;;1.98;;
71368;SDS011;59175;53.214;5.728;2023-03-01T08:59:04;3.63;;;1.73;;
71368;SDS011;59175;53.214;5.728;2023-03-01T09:01:30;4.67;;;1.27;;
71368;SDS011;59175;53.214;5.728;2023-03-01T09:03:55;10.37;;;2.60;;
71368;SDS011;59175;53.214;5.728;2023-03-01T09:06:20;8.30;;;3.27;;
71368;SDS011;59175;53.214;5.728;2023-03-01T09:08:47;12.02;;;4.75;;
71368;SDS011;59175;53.214;5.728;2023-03-01T09:11:13;12.00;;;3.17;;
71368;SDS011;59175;53.214;5.728;2023-03-01T09:13:40;8.45;;;1.90;;
71368;SDS011;59175;53.214;5.728;2023-03-01T09:16:08;6.90;;;3.00;;
71368;SDS011;59175;53.214;5.728;2023-03-01T09:18:33;1.67;;;0.60;;
71368;SDS011;59175;53.214;5.728;2023-03-01T09:21:06;8.98;;;2.28;;
71368;SDS011;59175;53.214;5.728;2023-03-01T09:23:32;4.00;;;1.17;;
71368;SDS011;59175;53.214;5.728;2023-03-01T09:25:57;2.78;;;0.90;;
71368;SDS011;59175;53.214;5.728;2023-03-01T09:28:23;4.20;;;2.10;;
71368;SDS011;59175;53.214;5.728;2023-03-01T09:30:48;11.23;;;2.27;;
71368;SDS011;59175;53.214;5.728;2023-03-01T09:33:13;7.70;;;3.57;;
71368;SDS011;59175;53.214;5.728;2023-03-01T09:35:39;5.53;;;2.53;;
71368;SDS011;59175;53.214;5.728;2023-03-01T09:38:10;8.50;;;1.65;;
71368;SDS011;59175;53.214;5.728;2023-03-01T09:40:36;4.20;;;1.70;;
71368;SDS011;59175;53.214;5.728;2023-03-01T09:43:05;7.37;;;1.70;;
71368;SDS011;59175;53.214;5.728;2023-03-01T09:45:35;9.80;;;2.55;;
71368;SDS011;59175;53.214;5.728;2023-03-01T09:48:00;6.57;;;2.05;;
71368;SDS011;59175;53.214;5.728;2023-03-01T09:50:27;4.85;;;2.67;;
71368;SDS011;59175;53.214;5.728;2023-03-01T09:53:04;5.70;;;1.83;;
71368;SDS011;59175;53.214;5.728;2023-03-01T09:55:37;2.35;;;1.25;;
71368;SDS011;59175;53.214;5.728;2023-03-01T10:00:41;9.30;;;2.47;;
71368;SDS011;59175;53.214;5.728;2023-03-01T10:06:13;8.90;;;3.57;;
71368;SDS011;59175;53.214;5.728;2023-03-01T10:08:48;7.93;;;2.97;;
71368;SDS011;59175;53.214;5.728;2023-03-01T10:11:22;6.78;;;3.13;;
71368;SDS011;59175;53.214;5.728;2023-03-01T10:16:52;7.07;;;3.55;;
71368;SDS011;59175;53.214;5.728;2023-03-01T10:19:27;4.80;;;2.80;;
71368;SDS011;59175;53.214;5.728;2023-03-01T10:21:55;7.45;;;1.73;;
71368;SDS011;59175;53.214;5.728;2023-03-01T10:24:22;8.25;;;3.85;;
71368;SDS011;59175;53.214;5.728;2023-03-01T10:26:48;9.67;;;3.47;;
71368;SDS011;59175;53.214;5.728;2023-03-01T10:29:17;11.98;;;5.55;;
71368;SDS011;59175;53.214;5.728;2023-03-01T10:31:44;15.60;;;4.22;;
71368;SDS011;59175;53.214;5.728;2023-03-01T10:34:33;7.20;;;4.10;;
71368;SDS011;59175;53.214;5.728;2023-03-01T10:36:57;8.10;;;3.70;;
71368;SDS011;59175;53.214;5.728;2023-03-01T10:39:25;14.52;;;3.75;;
71368;SDS011;59175;53.214;5.728;2023-03-01T10:44:39;10.63;;;3.22;;
71368;SDS011;59175;53.214;5.728;2023-03-01T10:47:04;10.20;;;4.37;;
71368;SDS011;59175;53.214;5.728;2023-03-01T10:49:30;10.40;;;3.92;;
71368;SDS011;59175;53.214;5.728;2023-03-01T10:51:56;5.93;;;2.10;;
71368;SDS011;59175;53.214;5.728;2023-03-01T10:54:35;8.30;;;2.72;;
71368;SDS011;59175;53.214;5.728;2023-03-01T10:57:02;5.27;;;2.20;;
71368;SDS011;59175;53.214;5.728;2023-03-01T10:59:31;10.80;;;4.20;;
71368;SDS011;59175;53.214;5.728;2023-03-01T11:02:01;5.38;;;2.47;;
71368;SDS011;59175;53.214;5.728;2023-03-01T11:04:26;14.85;;;5.32;;
71368;SDS011;59175;53.214;5.728;2023-03-01T11:06:58;10.80;;;3.50;;
71368;SDS011;59175;53.214;5.728;2023-03-01T11:09:24;7.30;;;3.13;;
71368;SDS011;59175;53.214;5.728;2023-03-01T11:11:55;6.30;;;2.92;;
71368;SDS011;59175;53.214;5.728;2023-03-01T11:14:22;20.73;;;5.22;;
71368;SDS011;59175;53.214;5.728;2023-03-01T11:16:48;6.88;;;2.70;;
71368;SDS011;59175;53.214;5.728;2023-03-01T11:19:16;14.00;;;5.40;;
71368;SDS011;59175;53.214;5.728;2023-03-01T11:21:53;8.33;;;2.63;;
71368;SDS011;59175;53.214;5.728;2023-03-01T11:24:19;5.97;;;3.03;;
71368;SDS011;59175;53.214;5.728;2023-03-01T11:26:50;4.53;;;2.28;;
71368;SDS011;59175;53.214;5.728;2023-03-01T11:31:48;8.35;;;3.35;;
71368;SDS011;59175;53.214;5.728;2023-03-01T11:34:15;8.00;;;3.53;;
71368;SDS011;59175;53.214;5.728;2023-03-01T11:36:46;9.23;;;3.53;;
71368;SDS011;59175;53.214;5.728;2023-03-01T11:41:48;8.45;;;2.83;;
71368;SDS011;59175;53.214;5.728;2023-03-01T11:44:20;8.33;;;3.30;;
71368;SDS011;59175;53.214;5.728;2023-03-01T11:47:02;10.40;;;4.05;;
71368;SDS011;59175;53.214;5.728;2023-03-01T11:59:51;6.43;;;2.13;;
71368;SDS011;59175;53.214;5.728;2023-03-01T12:09:52;13.50;;;3.83;;
71368;SDS011;59175;53.214;5.728;2023-03-01T12:20:07;9.43;;;2.88;;
71368;SDS011;59175;53.214;5.728;2023-03-01T12:30:29;11.00;;;4.30;;
71368;SDS011;59175;53.214;5.728;2023-03-01T12:40:43;5.72;;;3.30;;
71368;SDS011;59175;53.214;5.728;2023-03-01T12:48:26;7.33;;;3.13;;
71368;SDS011;59175;53.214;5.728;2023-03-01T12:50:55;11.15;;;2.90;;
71368;SDS011;59175;53.214;5.728;2023-03-01T12:53:27;5.40;;;2.47;;
71368;SDS011;59175;53.214;5.728;2023-03-01T12:55:54;12.13;;;5.30;;
71368;SDS011;59175;53.214;5.728;2023-03-01T13:03:33;11.20;;;4.25;;
71368;SDS011;59175;53.214;5.728;2023-03-01T13:08:38;8.20;;;2.03;;
71368;SDS011;59175;53.214;5.728;2023-03-01T13:11:05;9.55;;;4.28;;
71368;SDS011;59175;53.214;5.728;2023-03-01T13:13:31;12.60;;;4.53;;
71368;SDS011;59175;53.214;5.728;2023-03-01T13:15:56;8.77;;;2.57;;
71368;SDS011;59175;53.214;5.728;2023-03-01T13:20:49;6.77;;;2.50;;
71368;SDS011;59175;53.214;5.728;2023-03-01T13:31:02;10.68;;;3.83;;
71368;SDS011;59175;53.214;5.728;2023-03-01T13:35:53;8.60;;;2.67;;
71368;SDS011;59175;53.214;5.728;2023-03-01T13:41:03;7.57;;;2.85;;
71368;SDS011;59175;53.214;5.728;2023-03-01T13:43:33;7.10;;;2.33;;
71368;SDS011;59175;53.214;5.728;2023-03-01T13:45:59;9.90;;;4.03;;
71368;SDS011;59175;53.214;5.728;2023-03-01T13:48:26;11.05;;;4.25;;
71368;SDS011;59175;53.214;5.728;2023-03-01T13:50:53;8.23;;;3.47;;
71368;SDS011;59175;53.214;5.728;2023-03-01T13:53:20;11.52;;;4.35;;
71368;SDS011;59175;53.214;5.728;2023-03-01T13:55:56;8.97;;;3.30;;
71368;SDS011;59175;53.214;5.728;2023-03-01T13:58:26;7.18;;;2.17;;
71368;SDS011;59175;53.214;5.728;2023-03-01T14:01:06;7.82;;;2.90;;
71368;SDS011;59175;53.214;5.728;2023-03-01T14:03:33;2.08;;;0.85;;
71368;SDS011;59175;53.214;5.728;2023-03-01T14:06:08;10.10;;;2.67;;
71368;SDS011;59175;53.214;5.728;2023-03-01T14:08:35;8.93;;;3.07;;
71368;SDS011;59175;53.214;5.728;2023-03-01T14:13:51;4.90;;;1.70;;
71368;SDS011;59175;53.214;5.728;2023-03-01T14:16:23;10.98;;;4.32;;
71368;SDS011;59175;53.214;5.728;2023-03-01T14:18:53;9.02;;;2.55;;
71368;SDS011;59175;53.214;5.728;2023-03-01T14:21:22;10.57;;;3.77;;
71368;SDS011;59175;53.214;5.728;2023-03-01T14:23:47;6.78;;;2.50;;
71368;SDS011;59175;53.214;5.728;2023-03-01T14:26:13;10.93;;;4.03;;
71368;SDS011;59175;53.214;5.728;2023-03-01T14:28:44;11.30;;;3.97;;
71368;SDS011;59175;53.214;5.728;2023-03-01T14:33:54;9.48;;;2.97;;
71368;SDS011;59175;53.214;5.728;2023-03-01T14:36:25;8.07;;;2.95;;
71368;SDS011;59175;53.214;5.728;2023-03-01T14:38:50;8.73;;;2.60;;
71368;SDS011;59175;53.214;5.728;2023-03-01T14:41:19;7.50;;;2.50;;
71368;SDS011;59175;53.214;5.728;2023-03-01T14:43:55;5.10;;;1.93;;
71368;SDS011;59175;53.214;5.728;2023-03-01T14:46:30;6.35;;;1.88;;
71368;SDS011;59175;53.214;5.728;2023-03-01T14:48:58;8.02;;;3.38;;
71368;SDS011;59175;53.214;5.728;2023-03-01T14:51:26;7.35;;;2.22;;
71368;SDS011;59175;53.214;5.728;2023-03-01T14:53:51;4.93;;;1.90;;
71368;SDS011;59175;53.214;5.728;2023-03-01T14:56:17;7.20;;;2.40;;
71368;SDS011;59175;53.214;5.728;2023-03-01T14:58:42;11.93;;;3.60;;
71368;SDS011;59175;53.214;5.728;2023-03-01T15:01:10;8.83;;;3.10;;
71368;SDS011;59175;53.214;5.728;2023-03-01T15:03:45;9.75;;;3.30;;
71368;SDS011;59175;53.214;5.728;2023-03-01T15:06:11;8.15;;;3.40;;
71368;SDS011;59175;53.214;5.728;2023-03-01T15:08:44;10.48;;;3.40;;
71368;SDS011;59175;53.214;5.728;2023-03-01T15:13:39;7.67;;;2.83;;
71368;SDS011;59175;53.214;5.728;2023-03-01T15:16:14;8.77;;;2.78;;
71368;SDS011;59175;53.214;5.728;2023-03-01T15:18:44;7.65;;;3.03;;
71368;SDS011;59175;53.214;5.728;2023-03-01T15:21:15;7.13;;;1.70;;
71368;SDS011;59175;53.214;5.728;2023-03-01T15:23:40;8.10;;;2.30;;
71368;SDS011;59175;53.214;5.728;2023-03-01T15:26:06;5.95;;;1.23;;
71368;SDS011;59175;53.214;5.728;2023-03-01T15:28:37;3.63;;;1.13;;
71368;SDS011;59175;53.214;5.728;2023-03-01T15:31:03;8.83;;;2.20;;
71368;SDS011;59175;53.214;5.728;2023-03-01T15:33:33;8.32;;;2.70;;
71368;SDS011;59175;53.214;5.728;2023-03-01T15:36:00;8.93;;;2.22;;
71368;SDS011;59175;53.214;5.728;2023-03-01T15:40:55;3.95;;;1.02;;
71368;SDS011;59175;53.214;5.728;2023-03-01T15:43:37;9.03;;;2.07;;
71368;SDS011;59175;53.214;5.728;2023-03-01T15:46:03;6.95;;;2.17;;
71368;SDS011;59175;53.214;5.728;2023-03-01T15:48:29;4.88;;;1.35;;
71368;SDS011;59175;53.214;5.728;2023-03-01T15:50:55;10.63;;;2.60;;
71368;SDS011;59175;53.214;5.728;2023-03-01T15:53:21;7.55;;;2.70;;
71368;SDS011;59175;53.214;5.728;2023-03-01T15:55:47;5.10;;;1.70;;
71368;SDS011;59175;53.214;5.728;2023-03-01T15:58:24;10.67;;;3.60;;
71368;SDS011;59175;53.214;5.728;2023-03-01T16:00:50;7.20;;;1.58;;
71368;SDS011;59175;53.214;5.728;2023-03-01T16:03:20;6.55;;;1.85;;
71368;SDS011;59175;53.214;5.728;2023-03-01T16:05:47;8.10;;;2.17;;
71368;SDS011;59175;53.214;5.728;2023-03-01T16:08:12;9.27;;;2.50;;
71368;SDS011;59175;53.214;5.728;2023-03-01T16:10:37;4.57;;;1.63;;
71368;SDS011;59175;53.214;5.728;2023-03-01T16:13:02;5.40;;;2.43;;
71368;SDS011;59175;53.214;5.728;2023-03-01T16:15:29;7.13;;;2.07;;
71368;SDS011;59175;53.214;5.728;2023-03-01T16:17:54;5.85;;;2.33;;
71368;SDS011;59175;53.214;5.728;2023-03-01T16:20:20;10.47;;;3.60;;
71368;SDS011;59175;53.214;5.728;2023-03-01T16:22:45;9.87;;;2.43;;
71368;SDS011;59175;53.214;5.728;2023-03-01T16:25:12;7.20;;;2.17;;
71368;SDS011;59175;53.214;5.728;2023-03-01T16:27:37;9.05;;;2.65;;
71368;SDS011;59175;53.214;5.728;2023-03-01T16:30:03;12.03;;;3.70;;
71368;SDS011;59175;53.214;5.728;2023-03-01T16:32:28;8.98;;;3.00;;